sensor_id;sensor_type;location;lat;lon;timestamp;pressure;altitude;pressure_sealevel;temperature;humidity
38558;BME280;24333;42.626;23.308;2024-03-07T00:00:26;70296.59;;;-148.95;100.00
38558;BME280;24333;42.626;23.308;2024-03-07T00:02:53;70304.91;;;-148.95;100.00
38558;BME280;24333;42.626;23.308;2024-03-07T00:05:21;70309.06;;;-148.95;100.00
38558;BME280;24333;42.626;23.308;2024-03-07T00:07:49;70306.97;;;-148.95;100.00
38558;BME280;24333;42.626;23.308;2024-03-07T00:10:15;70296.59;;;-148.95;100.00
38558;BME280;24333;42.626;23.308;2024-03-07T00:15:23;70300.75;;;-148.95;100.00
38558;BME280;24333;42.626;23.308;2024-03-07T00:17:49;70294.53;;;-148.95;100.00
38558;BME280;24333;42.626;23.308;2024-03-07T00:20:15;70286.22;;;-148.95;100.00
38558;BME280;24333;42.626;23.308;2024-03-07T00:22:41;70284.16;;;-148.95;100.00
38558;BME280;24333;42.626;23.308;2024-03-07T00:25:07;70280.00;;;-148.95;100.00
38558;BME280;24333;42.626;23.308;2024-03-07T00:27:56;70271.72;;;-148.95;100.00
38558;BME280;24333;42.626;23.308;2024-03-07T00:34:27;70271.72;;;-148.95;100.00
38558;BME280;24333;42.626;23.308;2024-03-07T00:36:56;70259.25;;;-148.95;100.00
38558;BME280;24333;42.626;23.308;2024-03-07T00:39:24;70257.19;;;-148.95;100.00
38558;BME280;24333;42.626;23.308;2024-03-07T00:41:50;70269.63;;;-148.95;100.00
38558;BME280;24333;42.626;23.308;2024-03-07T00:44:16;70263.41;;;-148.95;100.00
38558;BME280;24333;42.626;23.308;2024-03-07T00:46:42;70277.94;;;-148.95;100.00
38558;BME280;24333;42.626;23.308;2024-03-07T00:49:26;70269.63;;;-148.95;100.00
38558;BME280;24333;42.626;23.308;2024-03-07T00:52:13;70271.72;;;-148.95;100.00
38558;BME280;24333;42.626;23.308;2024-03-07T00:54:39;70275.84;;;-148.95;100.00
38558;BME280;24333;42.626;23.308;2024-03-07T02:02:12;70300.75;;;-148.95;100.00
38558;BME280;24333;42.626;23.308;2024-03-07T02:04:58;70319.44;;;-148.95;100.00
38558;BME280;24333;42.626;23.308;2024-03-07T02:07:52;70317.34;;;-148.95;100.00
38558;BME280;24333;42.626;23.308;2024-03-07T08:04:13;70371.28;;;-148.95;100.00
38558;BME280;24333;42.626;23.308;2024-03-07T08:06:39;70383.75;;;-148.95;100.00
38558;BME280;24333;42.626;23.308;2024-03-07T08:09:04;70367.16;;;-148.95;100.00
38558;BME280;24333;42.626;23.308;2024-03-07T08:15:16;70360.91;;;-148.95;100.00
38558;BME280;24333;42.626;23.308;2024-03-07T08:17:45;70363.00;;;-148.95;100.00
38558;BME280;24333;42.626;23.308;2024-03-07T08:20:16;70389.97;;;-148.95;100.00
38558;BME280;24333;42.626;23.308;2024-03-07T08:22:46;70389.97;;;-148.95;100.00
38558;BME280;24333;42.626;23.308;2024-03-07T08:25:13;70414.88;;;-148.95;100.00
38558;BME280;24333;42.626;23.308;2024-03-07T08:27:40;70414.88;;;-148.95;100.00
38558;BME280;24333;42.626;23.308;2024-03-07T08:30:09;70419.00;;;-148.95;100.00
38558;BME280;24333;42.626;23.308;2024-03-07T08:35:07;70435.63;;;-148.95;100.00
38558;BME280;24333;42.626;23.308;2024-03-07T08:37:39;70429.38;;;-148.95;100.00
38558;BME280;24333;42.626;23.308;2024-03-07T08:40:12;70431.47;;;-148.95;100.00
38558;BME280;24333;42.626;23.308;2024-03-07T08:43:00;70414.88;;;-148.95;100.00
38558;BME280;24333;42.626;23.308;2024-03-07T08:45:37;70412.78;;;-148.95;100.00
38558;BME280;24333;42.626;23.308;2024-03-07T08:48:02;70406.56;;;-148.95;100.00
38558;BME280;24333;42.626;23.308;2024-03-07T08:50:32;70398.28;;;-148.95;100.00
38558;BME280;24333;42.626;23.308;2024-03-07T08:52:59;70381.66;;;-148.95;100.00
38558;BME280;24333;42.626;23.308;2024-03-07T08:55:25;70356.78;;;-148.95;100.00
38558;BME280;24333;42.626;23.308;2024-03-07T08:57:51;70336.03;;;-148.95;100.00
38558;BME280;24333;42.626;23.308;2024-03-07T09:00:20;70350.53;;;-148.95;100.00
38558;BME280;24333;42.626;23.308;2024-03-07T09:02:57;70363.00;;;-148.95;100.00
38558;BME280;24333;42.626;23.308;2024-03-07T09:05:30;70329.81;;;-148.95;100.00
38558;BME280;24333;42.626;23.308;2024-03-07T09:07:58;70298.69;;;-148.95;100.00
38558;BME280;24333;42.626;23.308;2024-03-07T09:10:25;70288.31;;;-148.95;100.00
38558;BME280;24333;42.626;23.308;2024-03-07T09:12:53;70250.97;;;-148.95;100.00
38558;BME280;24333;42.626;23.308;2024-03-07T14:33:32;70657.63;;;-148.95;100.00
38558;BME280;24333;42.626;23.308;2024-03-07T14:46:19;63654.44;;;-148.95;100.00
38558;BME280;24333;42.626;23.308;2024-03-07T14:59:05;63654.44;;;-148.95;100.00
38558;BME280;24333;42.626;23.308;2024-03-07T15:01:31;63654.44;;;-148.95;100.00
38558;BME280;24333;42.626;23.308;2024-03-07T15:04:00;63654.44;;;-148.95;100.00
38558;BME280;24333;42.626;23.308;2024-03-07T15:06:26;63654.44;;;-148.95;100.00
38558;BME280;24333;42.626;23.308;2024-03-07T15:08:51;63654.44;;;-148.95;100.00
38558;BME280;24333;42.626;23.308;2024-03-07T15:11:26;63654.44;;;-148.95;100.00
38558;BME280;24333;42.626;23.308;2024-03-07T15:13:54;63654.44;;;-148.95;100.00
38558;BME280;24333;42.626;23.308;2024-03-07T15:16:20;63654.44;;;-148.95;100.00
38558;BME280;24333;42.626;23.308;2024-03-07T15:18:46;63654.44;;;-148.95;100.00
38558;BME280;24333;42.626;23.308;2024-03-07T15:21:12;63654.44;;;-148.95;100.00
38558;BME280;24333;42.626;23.308;2024-03-07T15:23:43;63654.44;;;-148.95;100.00
38558;BME280;24333;42.626;23.308;2024-03-07T15:26:10;63654.44;;;-148.95;100.00
38558;BME280;24333;42.626;23.308;2024-03-07T15:28:36;63654.44;;;-148.95;100.00
38558;BME280;24333;42.626;23.308;2024-03-07T15:31:02;63654.44;;;-148.95;100.00
38558;BME280;24333;42.626;23.308;2024-03-07T15:33:33;63654.44;;;-148.95;100.00
38558;BME280;24333;42.626;23.308;2024-03-07T15:35:59;63654.44;;;-148.95;100.00
38558;BME280;24333;42.626;23.308;2024-03-07T15:38:24;63654.44;;;-148.95;100.00
38558;BME280;24333;42.626;23.308;2024-03-07T15:41:00;63654.44;;;-148.95;100.00
38558;BME280;24333;42.626;23.308;2024-03-07T15:43:29;63654.44;;;-148.95;100.00
38558;BME280;24333;42.626;23.308;2024-03-07T15:45:55;63654.44;;;-148.95;100.00
38558;BME280;24333;42.626;23.308;2024-03-07T15:48:24;63654.44;;;-148.95;100.00
38558;BME280;24333;42.626;23.308;2024-03-07T15:50:51;63654.44;;;-148.95;100.00
38558;BME280;24333;42.626;23.308;2024-03-07T15:53:18;63654.44;;;-148.95;100.00
38558;BME280;24333;42.626;23.308;2024-03-07T15:55:43;63654.44;;;-148.95;100.00
38558;BME280;24333;42.626;23.308;2024-03-07T15:58:09;63654.44;;;-148.95;100.00
38558;BME280;24333;42.626;23.308;2024-03-07T16:00:36;63654.44;;;-148.95;100.00
38558;BME280;24333;42.626;23.308;2024-03-07T16:03:06;63654.44;;;-148.95;100.00
38558;BME280;24333;42.626;23.308;2024-03-07T16:05:39;63654.44;;;-148.95;100.00
38558;BME280;24333;42.626;23.308;2024-03-07T16:08:09;63654.44;;;-148.95;100.00
38558;BME280;24333;42.626;23.308;2024-03-07T16:10:39;63654.44;;;-148.95;100.00
38558;BME280;24333;42.626;23.308;2024-03-07T16:13:10;63654.44;;;-148.95;100.00
38558;BME280;24333;42.626;23.308;2024-03-07T16:15:38;63654.44;;;-148.95;100.00
38558;BME280;24333;42.626;23.308;2024-03-07T16:18:04;63654.44;;;-148.95;100.00
38558;BME280;24333;42.626;23.308;2024-03-07T16:20:33;63654.44;;;-148.95;100.00
38558;BME280;24333;42.626;23.308;2024-03-07T16:22:59;63654.44;;;-148.95;100.00
38558;BME280;24333;42.626;23.308;2024-03-07T16:25:26;63654.44;;;-148.95;100.00
38558;BME280;24333;42.626;23.308;2024-03-07T16:27:52;63654.44;;;-148.95;100.00
38558;BME280;24333;42.626;23.308;2024-03-07T16:30:25;63654.44;;;-148.95;100.00
38558;BME280;24333;42.626;23.308;2024-03-07T16:32:52;63654.44;;;-148.95;100.00
38558;BME280;24333;42.626;23.308;2024-03-07T16:35:28;63654.44;;;-148.95;100.00
38558;BME280;24333;42.626;23.308;2024-03-07T16:37:57;63654.44;;;-148.95;100.00
38558;BME280;24333;42.626;23.308;2024-03-07T16:40:29;63654.44;;;-148.95;100.00
38558;BME280;24333;42.626;23.308;2024-03-07T16:42:59;63654.44;;;-148.95;100.00
38558;BME280;24333;42.626;23.308;2024-03-07T16:45:27;63654.44;;;-148.95;100.00
38558;BME280;24333;42.626;23.308;2024-03-07T16:47:54;63654.44;;;-148.95;100.00
38558;BME280;24333;42.626;23.308;2024-03-07T16:50:22;63654.44;;;-148.95;100.00
38558;BME280;24333;42.626;23.308;2024-03-07T16:52:52;63654.44;;;-148.95;100.00
38558;BME280;24333;42.626;23.308;2024-03-07T16:55:19;63654.44;;;-148.95;100.00
38558;BME280;24333;42.626;23.308;2024-03-07T16:57:46;63654.44;;;-148.95;100.00
38558;BME280;24333;42.626;23.308;2024-03-07T17:00:13;63654.44;;;-148.95;100.00
38558;BME280;24333;42.626;23.308;2024-03-07T17:02:54;63654.44;;;-148.95;100.00
38558;BME280;24333;42.626;23.308;2024-03-07T17:05:31;63654.44;;;-148.95;100.00
38558;BME280;24333;42.626;23.308;2024-03-07T17:08:00;63654.44;;;-148.95;100.00
38558;BME280;24333;42.626;23.308;2024-03-07T17:10:30;63654.44;;;-148.95;100.00
38558;BME280;24333;42.626;23.308;2024-03-07T17:12:57;63654.44;;;-148.95;100.00
38558;BME280;24333;42.626;23.308;2024-03-07T17:15:23;63654.44;;;-148.95;100.00
38558;BME280;24333;42.626;23.308;2024-03-07T17:17:52;63654.44;;;-148.95;100.00
38558;BME280;24333;42.626;23.308;2024-03-07T17:22:45;63654.44;;;-148.95;100.00
38558;BME280;24333;42.626;23.308;2024-03-07T17:25:16;63654.44;;;-148.95;100.00
38558;BME280;24333;42.626;23.308;2024-03-07T17:27:42;63654.44;;;-148.95;100.00
38558;BME280;24333;42.626;23.308;2024-03-07T17:31:08;63654.44;;;-148.95;100.00
38558;BME280;24333;42.626;23.308;2024-03-07T17:34:03;63654.44;;;-148.95;100.00
38558;BME280;24333;42.626;23.308;2024-03-07T17:36:33;63654.44;;;-148.95;100.00
38558;BME280;24333;42.626;23.308;2024-03-07T17:41:41;63654.44;;;-148.95;100.00
38558;BME280;24333;42.626;23.308;2024-03-07T17:44:20;63654.44;;;-148.95;100.00
38558;BME280;24333;42.626;23.308;2024-03-07T18:34:00;63654.44;;;-148.95;100.00
38558;BME280;24333;42.626;23.308;2024-03-07T18:36:29;63654.44;;;-148.95;100.00
38558;BME280;24333;42.626;23.308;2024-03-07T18:38:56;63654.44;;;-148.95;100.00
38558;BME280;24333;42.626;23.308;2024-03-07T18:41:29;63654.44;;;-148.95;100.00
38558;BME280;24333;42.626;23.308;2024-03-07T18:44:08;63654.44;;;-148.95;100.00
38558;BME280;24333;42.626;23.308;2024-03-07T18:46:34;63654.44;;;-148.95;100.00
38558;BME280;24333;42.626;23.308;2024-03-07T18:49:00;63654.44;;;-148.95;100.00
38558;BME280;24333;42.626;23.308;2024-03-07T18:51:35;63654.44;;;-148.95;100.00
38558;BME280;24333;42.626;23.308;2024-03-07T18:54:04;63654.44;;;-148.95;100.00
38558;BME280;24333;42.626;23.308;2024-03-07T18:59:56;63654.44;;;-148.95;100.00
38558;BME280;24333;42.626;23.308;2024-03-07T19:02:46;63654.44;;;-148.95;100.00
38558;BME280;24333;42.626;23.308;2024-03-07T19:05:16;63654.44;;;-148.95;100.00
38558;BME280;24333;42.626;23.308;2024-03-07T19:07:45;63654.44;;;-148.95;100.00
38558;BME280;24333;42.626;23.308;2024-03-07T19:10:45;63654.44;;;-148.95;100.00
38558;BME280;24333;42.626;23.308;2024-03-07T19:13:50;63654.44;;;-148.95;100.00
38558;BME280;24333;42.626;23.308;2024-03-07T19:43:43;63654.44;;;-148.95;100.00
38558;BME280;24333;42.626;23.308;2024-03-07T19:46:10;63654.44;;;-148.95;100.00
38558;BME280;24333;42.626;23.308;2024-03-07T19:48:43;63654.44;;;-148.95;100.00
38558;BME280;24333;42.626;23.308;2024-03-07T20:30:15;63654.44;;;-148.95;100.00
38558;BME280;24333;42.626;23.308;2024-03-07T20:32:49;63654.44;;;-148.95;100.00
38558;BME280;24333;42.626;23.308;2024-03-07T20:35:18;63654.44;;;-148.95;100.00
38558;BME280;24333;42.626;23.308;2024-03-07T20:37:48;63654.44;;;-148.95;100.00
38558;BME280;24333;42.626;23.308;2024-03-07T20:40:18;63654.44;;;-148.95;100.00
38558;BME280;24333;42.626;23.308;2024-03-07T20:42:48;63654.44;;;-148.95;100.00
38558;BME280;24333;42.626;23.308;2024-03-07T20:45:14;63654.44;;;-148.95;100.00
38558;BME280;24333;42.626;23.308;2024-03-07T20:47:46;63654.44;;;-148.95;100.00
38558;BME280;24333;42.626;23.308;2024-03-07T20:50:19;63654.44;;;-148.95;100.00
38558;BME280;24333;42.626;23.308;2024-03-07T20:52:49;63654.44;;;-148.95;100.00
38558;BME280;24333;42.626;23.308;2024-03-07T20:55:28;63654.44;;;-148.95;100.00
38558;BME280;24333;42.626;23.308;2024-03-07T20:57:55;63654.44;;;-148.95;100.00
38558;BME280;24333;42.626;23.308;2024-03-07T21:00:23;63654.44;;;-148.95;100.00
38558;BME280;24333;42.626;23.308;2024-03-07T21:02:53;63654.44;;;-148.95;100.00
38558;BME280;24333;42.626;23.308;2024-03-07T21:05:20;63654.44;;;-148.95;100.00
38558;BME280;24333;42.626;23.308;2024-03-07T21:07:47;63654.44;;;-148.95;100.00
38558;BME280;24333;42.626;23.308;2024-03-07T21:10:19;63654.44;;;-148.95;100.00
38558;BME280;24333;42.626;23.308;2024-03-07T21:12:48;63654.44;;;-148.95;100.00
38558;BME280;24333;42.626;23.308;2024-03-07T21:15:14;63654.44;;;-148.95;100.00
38558;BME280;24333;42.626;23.308;2024-03-07T21:17:46;63654.44;;;-148.95;100.00
38558;BME280;24333;42.626;23.308;2024-03-07T21:20:13;63654.44;;;-148.95;100.00
38558;BME280;24333;42.626;23.308;2024-03-07T21:22:48;63654.44;;;-148.95;100.00
38558;BME280;24333;42.626;23.308;2024-03-07T21:25:26;63654.44;;;-148.95;100.00
38558;BME280;24333;42.626;23.308;2024-03-07T21:27:55;63654.44;;;-148.95;100.00
38558;BME280;24333;42.626;23.308;2024-03-07T21:30:20;63654.44;;;-148.95;100.00
38558;BME280;24333;42.626;23.308;2024-03-07T21:32:46;63654.44;;;-148.95;100.00
38558;BME280;24333;42.626;23.308;2024-03-07T21:35:15;63654.44;;;-148.95;100.00
38558;BME280;24333;42.626;23.308;2024-03-07T21:37:41;63654.44;;;-148.95;100.00
38558;BME280;24333;42.626;23.308;2024-03-07T21:40:11;63654.44;;;-148.95;100.00
38558;BME280;24333;42.626;23.308;2024-03-07T21:42:49;63654.44;;;-148.95;100.00
38558;BME280;24333;42.626;23.308;2024-03-07T21:45:15;63654.44;;;-148.95;100.00
38558;BME280;24333;42.626;23.308;2024-03-07T21:47:42;63654.44;;;-148.95;100.00
38558;BME280;24333;42.626;23.308;2024-03-07T21:50:10;63654.44;;;-148.95;100.00
38558;BME280;24333;42.626;23.308;2024-03-07T21:52:47;63654.44;;;-148.95;100.00
38558;BME280;24333;42.626;23.308;2024-03-07T21:55:16;63654.44;;;-148.95;100.00
38558;BME280;24333;42.626;23.308;2024-03-07T21:57:42;63654.44;;;-148.95;100.00
38558;BME280;24333;42.626;23.308;2024-03-07T22:00:09;63654.44;;;-148.95;100.00
38558;BME280;24333;42.626;23.308;2024-03-07T22:02:43;63654.44;;;-148.95;100.00
38558;BME280;24333;42.626;23.308;2024-03-07T22:05:13;63654.44;;;-148.95;100.00
38558;BME280;24333;42.626;23.308;2024-03-07T22:07:41;63654.44;;;-148.95;100.00
38558;BME280;24333;42.626;23.308;2024-03-07T22:10:10;63654.44;;;-148.95;100.00
38558;BME280;24333;42.626;23.308;2024-03-07T22:12:40;63654.44;;;-148.95;100.00
38558;BME280;24333;42.626;23.308;2024-03-07T22:15:07;63654.44;;;-148.95;100.00
38558;BME280;24333;42.626;23.308;2024-03-07T22:17:37;63654.44;;;-148.95;100.00
38558;BME280;24333;42.626;23.308;2024-03-07T22:20:04;63654.44;;;-148.95;100.00
38558;BME280;24333;42.626;23.308;2024-03-07T22:22:33;63654.44;;;-148.95;100.00
38558;BME280;24333;42.626;23.308;2024-03-07T22:24:59;63654.44;;;-148.95;100.00
38558;BME280;24333;42.626;23.308;2024-03-07T22:27:28;63654.44;;;-148.95;100.00
38558;BME280;24333;42.626;23.308;2024-03-07T22:39:01;63654.44;;;-148.95;100.00
38558;BME280;24333;42.626;23.308;2024-03-07T22:41:54;63654.44;;;-148.95;100.00
38558;BME280;24333;42.626;23.308;2024-03-07T22:44:19;63654.44;;;-148.95;100.00
38558;BME280;24333;42.626;23.308;2024-03-07T22:46:49;63654.44;;;-148.95;100.00
38558;BME280;24333;42.626;23.308;2024-03-07T22:49:15;63654.44;;;-148.95;100.00
